Waipahu, Hawaii
Current Conditions -  °F | °C
As of 5:53 AM on Thursday 18 Dec 2014 (Local Time) from PHNL Reporting Station
Scattered Clouds Scattered Clouds  
Wind Chill: 74°   Ceiling: Unl
Heat Index: 74°   Visibility: 10mi
Dew Point: 66°   Wind: 9mph
Humidity: 76%   Direction: 60°ENE
Pressure: 30.14"   Gusts: NA
Location:  21.39°N, 158°W
Report Text: PHNL 181553Z 06008KT 10SM FEW024 SCT035 SCT055 23/19 A3014 RMK AO2 SLP205 T02330189
Loading
Personal Weather Stations






























Interactive Weather Map New forecast layout! Learn more

10-Day Weather Forecast

Advertisements
Track Severe Weather on mobile